Time;durP1;ratioP1;P1;durP2;ratioP2;P2;SDS_P1;SDS_P2;PMS_P1;PMS_P2;Temp;Humidity;BMP_temperature;BMP_pressure;BME280_temperature;BME280_humidity;BME280_pressure;Samples;Min_cycle;Max_cycle;Signal;HPM_P1;HPM_P2
2023/04/07 00:01:56;;;;;;;87.80;42.63;;;;;;;6.78;100.00;101229.34;6237029;23;20004;-88
2023/04/07 00:04:21;;;;;;;84.20;41.92;;;;;;;6.76;100.00;101232.00;6236796;23;20628;-87
2023/04/07 00:06:46;;;;;;;74.28;38.95;;;;;;;6.77;100.00;101241.66;6235329;23;19998;-87
2023/04/07 00:09:12;;;;;;;78.55;39.28;;;;;;;6.70;100.00;101227.78;6237292;23;20050;-87
2023/04/07 00:11:37;;;;;;;78.20;38.80;;;;;;;6.74;100.00;101234.72;6236444;23;20074;-87
2023/04/07 00:14:03;;;;;;;76.60;38.83;;;;;;;6.72;100.00;101240.94;6238574;23;20005;-87
2023/04/07 00:16:28;;;;;;;76.55;37.47;;;;;;;6.72;100.00;101246.22;6237475;23;20008;-87
2023/04/07 00:18:54;;;;;;;73.43;37.35;;;;;;;6.72;100.00;101246.22;6237738;23;20011;-87
2023/04/07 00:21:19;;;;;;;71.75;37.75;;;;;;;6.66;100.00;101238.50;6237055;23;20000;-88
2023/04/07 00:23:45;;;;;;;74.20;38.03;;;;;;;6.71;100.00;101244.50;6235528;23;20294;-87
2023/04/07 00:26:11;;;;;;;70.88;38.53;;;;;;;6.64;100.00;101241.16;6237672;23;20011;-88
2023/04/07 00:28:36;;;;;;;72.63;37.40;;;;;;;6.70;100.00;101258.66;6237287;23;20004;-88
2023/04/07 00:31:01;;;;;;;69.78;38.38;;;;;;;6.70;100.00;101250.72;6236614;23;20061;-88
2023/04/07 00:33:27;;;;;;;69.28;37.55;;;;;;;6.68;100.00;101244.59;6235473;23;20008;-88
2023/04/07 00:35:53;;;;;;;71.93;39.15;;;;;;;6.61;100.00;101241.25;6237046;23;20427;-87
2023/04/07 00:38:18;;;;;;;70.63;39.03;;;;;;;6.60;100.00;101238.66;6236832;23;20004;-87
2023/04/07 00:40:44;;;;;;;71.70;37.95;;;;;;;6.65;100.00;101244.69;6235416;23;20051;-88
2023/04/07 00:43:09;;;;;;;75.20;38.33;;;;;;;6.61;100.00;101238.63;6237117;23;20007;-88
2023/04/07 00:45:35;;;;;;;75.85;40.53;;;;;;;6.63;100.00;101249.16;6209999;23;20001;-87
2023/04/07 00:48:01;;;;;;;71.45;39.22;;;;;;;6.58;100.00;101243.13;6237177;22;20019;-87
2023/04/07 00:50:26;;;;;;;69.85;38.28;;;;;;;6.56;100.00;101235.22;6237409;23;20004;-87
2023/04/07 00:52:53;;;;;;;74.20;38.83;;;;;;;6.64;100.00;101250.88;6210964;23;20095;-88
2023/04/07 00:55:18;;;;;;;70.93;40.10;;;;;;;6.63;100.00;101246.50;6238576;23;20088;-87
2023/04/07 00:57:45;;;;;;;73.25;38.95;;;;;;;6.62;100.00;101242.13;6210485;23;20042;-88
2023/04/07 01:00:11;;;;;;;75.13;39.75;;;;;;;6.61;100.00;101237.75;6237890;23;20054;-87
2023/04/07 01:02:42;;;;;;;73.75;39.15;;;;;;;6.60;100.00;101243.94;6237553;23;20373;-88
2023/04/07 01:05:15;;;;;;;78.45;40.33;;;;;;;6.57;100.00;101244.03;6238526;23;20016;-88
2023/04/07 01:07:51;;;;;;;77.15;40.05;;;;;;;6.61;100.00;101237.75;6212415;23;20073;-87
2023/04/07 01:10:25;;;;;;;76.03;39.00;;;;;;;6.56;100.00;101240.50;6242857;23;20027;-87
2023/04/07 01:13:01;;;;;;;;;;;;;;;6.60;100.00;101251.88;6246205;23;20084;-87
2023/04/07 01:15:29;;;;;;;74.53;37.97;;;;;;;6.55;100.00;101244.06;6246420;23;19915;-86
2023/04/07 01:18:03;;;;;;;78.28;39.53;;;;;;;6.58;100.00;101259.00;6246279;23;20008;-87
2023/04/07 01:20:32;;;;;;;70.10;38.00;;;;;;;6.57;100.00;101257.25;6246643;23;20012;-87
2023/04/07 01:23:02;;;;;;;59.47;34.53;;;;;;;6.51;100.00;101249.47;6239199;23;20065;-87
2023/04/07 01:25:46;;;;;;;65.90;34.72;;;;;;;6.54;100.00;101252.91;6239235;23;20007;-87
2023/04/07 01:28:30;;;;;;;;;;;;;;;6.54;100.00;101265.28;6239293;23;20023;-89
2023/04/07 01:30:58;;;;;;;54.63;31.57;;;;;;;6.47;100.00;101265.44;6237747;23;19910;-89
2023/04/07 01:33:25;;;;;;;57.92;34.28;;;;;;;6.46;100.00;101265.47;6239393;23;20251;-88
2023/04/07 01:35:52;;;;;;;67.90;36.50;;;;;;;6.40;100.00;101255.94;6240009;23;20430;-88
2023/04/07 01:38:19;;;;;;;69.10;37.55;;;;;;;6.45;100.00;101259.31;6250934;23;20350;-87
2023/04/07 01:40:46;;;;;;;67.47;37.38;;;;;;;6.49;100.00;101271.56;6265492;22;19996;-87
2023/04/07 01:43:12;;;;;;;64.85;37.50;;;;;;;6.49;100.00;101271.56;6267197;22;20061;-87
2023/04/07 01:45:40;;;;;;;68.55;37.33;;;;;;;6.45;100.00;101261.97;6264836;22;20020;-88
2023/04/07 01:48:06;;;;;;;65.13;37.22;;;;;;;6.48;100.00;101263.69;6238730;23;20037;-87
2023/04/07 01:50:32;;;;;;;60.83;35.40;;;;;;;6.40;100.00;101266.53;6263594;22;20006;-87
2023/04/07 01:52:58;;;;;;;63.92;36.33;;;;;;;6.38;100.00;101256.88;6252220;23;20028;-87
2023/04/07 01:55:24;;;;;;;59.47;35.40;;;;;;;6.38;100.00;101263.03;6243038;23;20004;-87
2023/04/07 01:57:49;;;;;;;55.17;32.17;;;;;;;6.34;100.00;101256.09;6215826;23;20065;-88
2023/04/07 02:00:15;;;;;;;53.72;32.13;;;;;;;6.38;100.00;101273.63;6243365;23;20024;-87
2023/04/07 02:02:43;;;;;;;50.42;30.65;;;;;;;6.31;100.00;101269.41;6241998;23;20008;-87
2023/04/07 02:05:12;;;;;;;52.35;30.80;;;;;;;6.30;100.00;101262.38;6213946;23;20095;-87
2023/04/07 02:07:52;;;;;;;46.50;29.38;;;;;;;6.32;100.00;101268.50;6212934;23;20024;-88
2023/04/07 02:10:22;;;;;;;47.70;28.67;;;;;;;6.31;100.00;101277.34;6212636;23;20004;-88
2023/04/07 02:12:48;;;;;;;48.25;28.55;;;;;;;6.27;100.00;101274.78;6239641;23;20008;-87
2023/04/07 02:15:15;;;;;;;42.50;27.10;;;;;;;6.29;100.00;101276.50;6239203;23;20310;-88
2023/04/07 02:17:44;;;;;;;40.70;24.73;;;;;;;6.22;100.00;101275.78;6211829;23;20700;-89
2023/04/07 02:20:11;;;;;;;41.63;23.80;;;;;;;6.24;100.00;101271.34;6237823;23;20334;-89
2023/04/07 02:22:38;;;;;;;38.38;24.15;;;;;;;6.26;100.00;101281.88;6210142;23;20477;-88
2023/04/07 02:25:29;;;;;;;38.03;23.38;;;;;;;6.27;100.00;101278.34;6239189;23;20008;-89
2023/04/07 02:27:56;;;;;;;35.80;22.77;;;;;;;6.24;100.00;101286.34;6212579;23;20007;-88
2023/04/07 02:30:22;;;;;;;31.27;20.63;;;;;;;6.21;100.00;101287.28;6210946;23;20015;-88
2023/04/07 02:32:47;;;;;;;32.28;20.85;;;;;;;6.14;100.00;101269.81;6238953;23;20012;-87
2023/04/07 02:35:14;;;;;;;30.00;19.55;;;;;;;6.14;100.00;101276.88;6238818;23;20008;-86
2023/04/07 02:37:39;;;;;;;35.13;17.95;;;;;;;6.16;100.00;101285.66;6251163;23;20028;-88
2023/04/07 02:40:06;;;;;;;25.90;17.02;;;;;;;6.16;100.00;101278.59;6264349;23;19996;-87
2023/04/07 02:42:31;;;;;;;26.10;16.50;;;;;;;6.12;100.00;101270.78;6265319;22;20018;-89
2023/04/07 02:44:56;;;;;;;24.95;16.15;;;;;;;6.17;100.00;101284.75;6239748;23;19992;-88
2023/04/07 02:47:22;;;;;;;31.27;17.13;;;;;;;6.16;100.00;101283.03;6264958;22;20016;-87
2023/04/07 02:49:47;;;;;;;25.95;16.08;;;;;;;6.15;100.00;101279.50;6259340;22;20008;-88
2023/04/07 02:52:12;;;;;;;25.67;16.25;;;;;;;6.13;100.00;101280.44;6256653;23;20004;-87
2023/04/07 02:54:37;;;;;;;24.65;15.40;;;;;;;6.14;100.00;101282.19;6254929;23;20023;-86
2023/04/07 02:57:03;;;;;;;21.25;14.55;;;;;;;6.15;100.00;101287.44;6254899;23;20059;-89
2023/04/07 02:59:28;;;;;;;21.08;14.27;;;;;;;6.13;100.00;101288.38;6252760;23;20054;-89
2023/04/07 03:01:53;;;;;;;20.80;14.32;;;;;;;6.10;100.00;101283.16;6242285;23;20050;-89
2023/04/07 03:04:18;;;;;;;22.90;13.20;;;;;;;6.14;100.00;101295.38;6243025;23;20032;-88
2023/04/07 03:06:44;;;;;;;22.95;13.52;;;;;;;6.11;100.00;101284.91;6242969;23;19996;-89
2023/04/07 03:09:09;;;;;;;20.35;13.48;;;;;;;6.15;100.00;101292.72;6216004;23;20440;-88
2023/04/07 03:11:35;;;;;;;20.67;13.40;;;;;;;6.10;100.00;101280.53;6244402;23;20043;-87
2023/04/07 03:14:00;;;;;;;18.27;13.85;;;;;;;6.18;100.00;101297.06;6244112;23;20083;-88
2023/04/07 03:16:25;;;;;;;20.58;14.10;;;;;;;6.13;100.00;101283.09;6241963;23;20000;-86
2023/04/07 03:18:51;;;;;;;20.45;14.65;;;;;;;6.18;100.00;101286.47;6240288;23;20004;-88
2023/04/07 03:21:16;;;;;;;22.85;14.30;;;;;;;6.18;100.00;101282.06;6240734;23;20004;-88
2023/04/07 03:23:41;;;;;;;25.35;16.73;;;;;;;6.19;100.00;101282.94;6240182;23;20061;-88
2023/04/07 03:26:07;;;;;;;25.15;16.02;;;;;;;6.19;100.00;101277.66;6240551;23;19996;-89
2023/04/07 03:28:32;;;;;;;23.58;15.60;;;;;;;6.18;100.00;101276.78;6240094;23;20009;-88
2023/04/07 03:30:58;;;;;;;24.10;15.65;;;;;;;6.19;100.00;101277.66;6240751;23;20008;-90
2023/04/07 03:33:23;;;;;;;27.23;16.90;;;;;;;6.01;100.00;101246.41;6240549;23;20008;-88
2023/04/07 03:35:48;;;;;;;29.67;17.38;;;;;;;6.03;100.00;101253.41;6241749;23;20419;-87
2023/04/07 03:38:14;;;;;;;29.73;16.85;;;;;;;6.14;100.00;101272.47;6243572;23;20059;-87
2023/04/07 03:40:39;;;;;;;29.88;18.55;;;;;;;6.11;100.00;101269.94;6218652;23;20416;-87
2023/04/07 03:43:04;;;;;;;26.45;18.52;;;;;;;6.18;100.00;101287.34;6246377;23;20007;-88
2023/04/07 03:45:32;;;;;;;28.98;18.20;;;;;;;6.16;100.00;101278.59;6246099;23;20000;-88
2023/04/07 03:47:57;;;;;;;28.15;19.63;;;;;;;6.14;100.00;101274.25;6242799;22;20095;-90
2023/04/07 03:50:23;;;;;;;28.55;19.48;;;;;;;6.18;100.00;101281.19;6240463;23;20505;-89
2023/04/07 03:52:48;;;;;;;29.02;20.05;;;;;;;6.11;100.00;101274.34;6240311;23;20340;-89
2023/04/07 03:55:13;;;;;;;35.03;21.33;;;;;;;6.11;100.00;101282.28;6236158;23;19992;-87
2023/04/07 03:57:38;;;;;;;33.28;20.13;;;;;;;6.08;100.00;101279.69;6263974;22;20042;-88
2023/04/07 04:00:04;;;;;;;30.42;19.85;;;;;;;6.09;100.00;101286.72;6266671;22;20004;-90
2023/04/07 04:02:30;;;;;;;30.95;20.45;;;;;;;6.10;100.00;101291.09;6265902;22;20005;-89
2023/04/07 04:04:55;;;;;;;32.33;19.98;;;;;;;6.13;100.00;101297.16;6265544;22;20016;-88
2023/04/07 04:07:20;;;;;;;32.40;19.40;;;;;;;6.12;100.00;101292.81;6264335;23;19988;-89
2023/04/07 04:09:46;;;;;;;32.42;20.30;;;;;;;6.11;100.00;101301.66;6243937;23;20004;-89
2023/04/07 04:12:11;;;;;;;31.40;20.35;;;;;;;6.10;100.00;101299.88;6243247;23;20000;-88
2023/04/07 04:14:36;;;;;;;31.70;19.95;;;;;;;6.10;100.00;101297.25;6242620;23;20382;-88
2023/04/07 04:17:01;;;;;;;33.13;20.52;;;;;;;6.11;100.00;101300.78;6243221;23;20575;-89
2023/04/07 04:19:27;;;;;;;32.42;21.00;;;;;;;6.11;100.00;101293.72;6240563;23;20000;-89
2023/04/07 04:21:52;;;;;;;35.00;21.23;;;;;;;6.13;100.00;101298.94;6240895;23;20079;-88
2023/04/07 04:24:17;;;;;;;33.38;20.73;;;;;;;6.13;100.00;101304.25;6240983;23;20008;-89
2023/04/07 04:26:42;;;;;;;34.22;20.98;;;;;;;6.14;100.00;101304.19;6240055;23;20011;-87
2023/04/07 04:29:08;;;;;;;40.08;21.95;;;;;;;6.12;100.00;101305.16;6240256;23;20055;-87
2023/04/07 04:31:33;;;;;;;36.85;22.08;;;;;;;6.13;100.00;101307.75;6214428;23;20000;-87
2023/04/07 04:33:58;;;;;;;36.90;22.50;;;;;;;6.03;100.00;101289.53;6239809;23;20008;-89
2023/04/07 04:36:25;;;;;;;38.15;22.80;;;;;;;6.11;100.00;101300.78;6240850;23;20004;-90
2023/04/07 04:38:50;;;;;;;36.85;22.55;;;;;;;6.07;100.00;101299.13;6240457;23;20334;-89
2023/04/07 04:41:15;;;;;;;38.60;24.40;;;;;;;6.04;100.00;101300.06;6239050;23;20004;-89
2023/04/07 04:43:41;;;;;;;45.05;24.10;;;;;;;6.05;100.00;101311.47;6212686;23;20036;-89
2023/04/07 04:46:06;;;;;;;38.83;23.35;;;;;;;5.98;100.00;101309.00;6240367;23;20000;-89
2023/04/07 04:48:31;;;;;;;37.95;23.13;;;;;;;5.86;100.00;101290.78;6239539;22;20012;-88
2023/04/07 04:50:56;;;;;;;43.80;23.92;;;;;;;5.88;100.00;101311.84;6239619;23;20011;-88
2023/04/07 04:53:22;;;;;;;40.85;23.98;;;;;;;5.82;100.00;101307.59;6238810;23;20050;-89
2023/04/07 04:55:50;;;;;;;40.20;24.20;;;;;;;5.73;100.00;101302.53;6239955;23;20012;-89
2023/04/07 04:58:17;;;;;;;41.28;24.33;;;;;;;5.77;100.00;101314.78;6238834;23;20011;-89
2023/04/07 05:00:42;;;;;;;41.03;23.73;;;;;;;5.77;100.00;101321.81;6212092;23;20535;-88
2023/04/07 05:03:07;;;;;;;39.85;22.77;;;;;;;5.74;100.00;101326.28;6239024;23;20012;-89
2023/04/07 05:05:32;;;;;;;44.00;24.10;;;;;;;5.73;100.00;101313.09;6239116;23;20000;-87
2023/04/07 05:07:58;;;;;;;42.17;24.08;;;;;;;5.82;100.00;101330.50;6238448;23;20441;-88
2023/04/07 05:10:23;;;;;;;48.03;25.30;;;;;;;5.75;100.00;101316.56;6240412;23;20035;-89
2023/04/07 05:12:48;;;;;;;45.50;24.08;;;;;;;5.84;100.00;101334.84;6240567;23;20040;-89
2023/04/07 05:15:14;;;;;;;49.63;25.92;;;;;;;5.82;100.00;101334.03;6240411;23;20004;-89
2023/04/07 05:17:40;;;;;;;51.65;29.30;;;;;;;5.74;100.00;101330.69;6241019;23;20088;-89
2023/04/07 05:20:07;;;;;;;52.78;26.90;;;;;;;5.74;100.00;101330.69;6241296;23;20007;-88
2023/04/07 05:22:33;;;;;;;48.65;25.08;;;;;;;5.79;100.00;101339.38;6237677;23;20008;-88
2023/04/07 05:24:58;;;;;;;46.00;24.92;;;;;;;5.79;100.00;101343.78;6239208;23;20015;-87
2023/04/07 05:27:23;;;;;;;43.25;24.30;;;;;;;5.84;100.00;101348.03;6239664;23;20007;-89
2023/04/07 05:29:49;;;;;;;43.90;25.27;;;;;;;5.87;100.00;101347.13;6212928;23;20016;-88
2023/04/07 05:32:14;;;;;;;40.03;23.25;;;;;;;5.91;100.00;101359.34;6214273;23;20030;-88
2023/04/07 05:34:40;;;;;;;47.92;24.80;;;;;;;5.94;100.00;101352.25;6240647;23;20051;-89
2023/04/07 05:37:05;;;;;;;40.78;24.48;;;;;;;5.90;100.00;101352.34;6239605;23;20079;-87
2023/04/07 05:39:30;;;;;;;40.70;24.52;;;;;;;5.92;100.00;101347.91;6237286;23;20003;-88
2023/04/07 05:41:56;;;;;;;43.70;24.73;;;;;;;5.97;100.00;101359.22;6239377;23;20083;-88
2023/04/07 05:44:22;;;;;;;44.67;25.20;;;;;;;6.04;100.00;101357.31;6238481;23;20054;-88
2023/04/07 05:46:47;;;;;;;44.83;24.48;;;;;;;6.09;100.00;101358.94;6238975;23;20355;-88
2023/04/07 05:49:13;;;;;;;41.72;24.15;;;;;;;6.15;100.00;101363.22;6237516;22;20820;-87
2023/04/07 05:51:38;;;;;;;41.28;24.55;;;;;;;6.15;100.00;101360.59;6239972;23;20014;-89
2023/04/07 05:54:03;;;;;;;43.30;24.45;;;;;;;6.16;100.00;101362.31;6240552;23;20028;-88
2023/04/07 05:56:29;;;;;;;44.00;25.13;;;;;;;6.13;100.00;101351.81;6238445;23;20477;-86
2023/04/07 05:58:55;;;;;;;39.72;23.70;;;;;;;6.23;100.00;101369.19;6237960;23;20010;-92
2023/04/07 06:01:20;;;;;;;44.97;25.25;;;;;;;6.22;100.00;101370.06;6237873;23;20004;-87
2023/04/07 06:03:45;;;;;;;41.80;24.88;;;;;;;6.21;100.00;101371.00;6239442;23;20334;-87
2023/04/07 06:06:11;;;;;;;40.15;24.80;;;;;;;6.19;100.00;101378.97;6241250;23;20376;-86
2023/04/07 06:08:36;;;;;;;43.67;25.33;;;;;;;6.19;100.00;101383.41;6217727;23;20413;-87
2023/04/07 06:11:01;;;;;;;42.92;25.30;;;;;;;6.15;100.00;101372.03;6247211;23;20089;-86
2023/04/07 06:13:27;;;;;;;47.20;26.10;;;;;;;6.17;100.00;101378.13;6249871;23;20068;-86
2023/04/07 06:15:54;;;;;;;46.47;26.70;;;;;;;6.17;100.00;101378.13;6241956;23;20004;-86
2023/04/07 06:18:20;;;;;;;43.45;26.08;;;;;;;6.15;100.00;101382.59;6237119;23;20011;-87
2023/04/07 06:20:45;;;;;;;44.53;27.58;;;;;;;6.22;100.00;101386.81;6237125;23;20352;-87
2023/04/07 06:23:11;;;;;;;46.00;27.00;;;;;;;6.27;100.00;101391.13;6237459;23;20007;-86
2023/04/07 06:25:36;;;;;;;45.78;27.55;;;;;;;6.28;100.00;101383.16;6240302;23;20004;-88
2023/04/07 06:28:01;;;;;;;49.83;28.70;;;;;;;6.29;100.00;101384.03;6237357;23;20007;-87
2023/04/07 06:30:26;;;;;;;44.92;27.20;;;;;;;6.29;100.00;101373.44;6238590;23;20004;-87
2023/04/07 06:32:52;;;;;;;43.42;28.08;;;;;;;6.35;100.00;101384.72;6237737;23;20004;-87
2023/04/07 06:35:17;;;;;;;43.90;27.45;;;;;;;6.39;100.00;101394.31;6239003;23;20052;-87
2023/04/07 06:37:42;;;;;;;44.58;26.80;;;;;;;6.44;100.00;101383.66;6237908;23;20073;-87
2023/04/07 06:40:08;;;;;;;45.42;28.25;;;;;;;6.48;100.00;101394.13;6210580;23;20492;-87
2023/04/07 06:42:33;;;;;;;43.53;27.80;;;;;;;6.52;100.00;101386.09;6217867;23;20003;-88
2023/04/07 06:44:58;;;;;;;41.92;27.08;;;;;;;6.59;100.00;101393.81;6262681;22;20007;-88
2023/04/07 06:47:24;;;;;;;41.95;27.40;;;;;;;6.59;100.00;101396.47;6262585;22;20261;-85
2023/04/07 06:49:49;;;;;;;46.30;27.98;;;;;;;6.60;100.00;101392.03;6260568;22;20034;-86
2023/04/07 06:52:15;;;;;;;41.90;27.77;;;;;;;6.66;100.00;101405.13;6260326;23;19996;-88
2023/04/07 06:54:40;;;;;;;41.47;26.17;;;;;;;6.72;100.00;101410.25;6252685;23;20003;-88
2023/04/07 06:57:10;;;;;;;40.70;26.75;;;;;;;6.76;100.00;101405.75;6229101;23;20005;-89
2023/04/07 06:59:36;;;;;;;43.28;26.80;;;;;;;6.77;100.00;101408.34;6229112;23;20064;-89
2023/04/07 07:02:01;;;;;;;39.85;26.25;;;;;;;6.84;100.00;101409.94;6254829;23;20004;-87
2023/04/07 07:04:26;;;;;;;41.03;25.95;;;;;;;6.88;100.00;101421.31;6243047;23;20107;-84
2023/04/07 07:06:52;;;;;;;39.78;25.13;;;;;;;6.89;100.00;101423.91;6241163;23;19996;-89
2023/04/07 07:09:17;;;;;;;41.15;25.88;;;;;;;6.86;100.00;101408.13;6241702;23;20394;-89
2023/04/07 07:11:43;;;;;;;39.65;24.38;;;;;;;6.93;100.00;101416.75;6242279;23;20008;-88
2023/04/07 07:14:08;;;;;;;35.47;24.40;;;;;;;6.99;100.00;101422.78;6216977;23;20054;-88
2023/04/07 07:16:33;;;;;;;37.15;24.70;;;;;;;7.04;100.00;101425.28;6243681;23;20004;-90
2023/04/07 07:18:58;;;;;;;31.80;22.38;;;;;;;7.06;100.00;101431.41;6243928;23;20106;-88
2023/04/07 07:21:24;;;;;;;32.97;22.60;;;;;;;7.11;100.00;101439.25;6244036;23;20433;-87
2023/04/07 07:23:50;;;;;;;33.90;23.20;;;;;;;7.09;100.00;101425.16;6240123;23;20102;-88
2023/04/07 07:26:15;;;;;;;35.00;24.42;;;;;;;7.28;100.00;101422.88;6240634;23;20000;-90
2023/04/07 07:28:40;;;;;;;31.45;22.77;;;;;;;7.40;100.00;101431.34;6251816;23;19995;-89
2023/04/07 07:31:13;;;;;;;32.75;22.70;;;;;;;7.61;100.00;101429.00;6267306;22;20043;-88
2023/04/07 07:33:40;;;;;;;29.42;21.58;;;;;;;7.80;100.00;101434.63;6265415;22;20000;-88
2023/04/07 07:36:06;;;;;;;30.65;20.33;;;;;;;8.00;100.00;101429.59;6264219;22;20062;-88
2023/04/07 07:38:32;;;;;;;23.15;18.23;;;;;;;8.08;100.00;101435.53;6260563;23;20033;-88
2023/04/07 07:40:57;;;;;;;24.90;17.50;;;;;;;8.19;100.00;101438.72;6261054;22;20004;-87
2023/04/07 07:43:23;;;;;;;22.33;16.08;;;;;;;8.23;100.00;101443.00;6247325;23;20011;-87
2023/04/07 07:45:48;;;;;;;21.35;16.33;;;;;;;8.22;100.00;101445.69;6243020;23;20008;-87
2023/04/07 07:48:13;;;;;;;25.70;16.25;;;;;;;8.28;100.00;101447.25;6242372;22;20311;-87
2023/04/07 07:50:39;;;;;;;18.25;13.07;;;;;;;8.36;100.00;101445.22;6242371;23;20047;-89
2023/04/07 07:53:04;;;;;;;20.38;13.30;;;;;;;8.37;100.00;101439.06;6215554;23;20000;-89
2023/04/07 07:55:29;;;;;;;17.45;11.10;;;;;;;8.39;100.00;101451.34;6241303;23;20000;-88
2023/04/07 07:57:54;;;;;;;18.58;12.70;;;;;;;8.41;100.00;101446.88;6241947;23;20000;-88
2023/04/07 08:00:20;;;;;;;14.85;11.02;;;;;;;8.46;100.00;101457.34;6242987;23;20004;-88
2023/04/07 08:02:45;;;;;;;13.77;8.90;;;;;;;8.39;100.00;101461.97;6216691;23;20004;-88
2023/04/07 08:05:11;;;;;;;11.63;8.45;;;;;;;8.33;100.00;101462.13;6240876;23;20004;-88
2023/04/07 08:07:37;;;;;;;11.02;7.93;;;;;;;8.36;100.00;101472.66;6236595;23;19997;-87
2023/04/07 08:10:03;;;;;;;10.40;8.05;;;;;;;8.43;100.00;101466.25;6238856;23;20004;-85
2023/04/07 08:12:28;;;;;;;15.25;8.13;;;;;;;8.38;100.00;101465.53;6237976;23;20524;-87
2023/04/07 08:14:53;;;;;;;12.43;7.70;;;;;;;8.30;100.00;101464.88;6238173;23;20087;-87
2023/04/07 08:17:18;;;;;;;12.40;7.30;;;;;;;8.23;100.00;101473.94;6238192;23;20126;-90
2023/04/07 08:19:45;;;;;;;11.75;7.95;;;;;;;8.12;100.00;101463.69;6244079;23;20086;-90
2023/04/07 08:22:10;;;;;;;10.98;7.40;;;;;;;8.17;100.00;101476.78;6244204;23;20004;-85
2023/04/07 08:24:35;;;;;;;10.43;7.10;;;;;;;8.06;100.00;101465.63;6247932;23;20011;-90
2023/04/07 08:27:01;;;;;;;13.82;7.68;;;;;;;8.09;100.00;101489.41;6247300;23;19996;-88
2023/04/07 08:29:26;;;;;;;11.82;8.50;;;;;;;8.07;100.00;101492.13;6247485;23;20024;-88
2023/04/07 08:31:52;;;;;;;9.82;6.75;;;;;;;8.06;100.00;101485.06;6247594;23;20350;-88
2023/04/07 08:34:19;;;;;;;12.68;7.10;;;;;;;8.13;100.00;101488.41;6245229;23;20011;-88
2023/04/07 08:36:45;;;;;;;8.55;6.20;;;;;;;8.27;100.00;101478.22;6244783;23;20004;-88
2023/04/07 08:39:10;;;;;;;12.48;6.78;;;;;;;8.39;100.00;101484.97;6243464;23;20004;-90
2023/04/07 08:41:40;;;;;;;8.50;5.22;;;;;;;8.47;100.00;101496.22;6244964;23;20000;-88
2023/04/07 08:44:09;;;;;;;8.40;5.25;;;;;;;8.48;100.00;101493.53;6246340;23;20010;-90
2023/04/07 08:46:37;;;;;;;8.27;4.60;;;;;;;8.51;100.00;101487.22;6240294;23;20071;-89
2023/04/07 08:49:07;;;;;;;7.00;5.40;;;;;;;8.56;100.00;101495.03;6230239;23;20016;-90
2023/04/07 08:51:33;;;;;;;7.93;5.22;;;;;;;8.53;100.00;101500.44;6238208;22;20031;-89
2023/04/07 08:54:12;;;;;;;7.47;5.15;;;;;;;8.60;100.00;101499.34;6236195;23;20090;-91
2023/04/07 08:56:42;;;;;;;7.85;5.18;;;;;;;8.59;100.00;101505.56;6237124;22;20004;-89
2023/04/07 08:59:12;;;;;;;8.70;6.10;;;;;;;8.50;100.00;101501.44;6238025;22;20066;-89
2023/04/07 09:01:38;;;;;;;8.05;4.95;;;;;;;8.40;100.00;101503.50;6238272;22;20011;-90
2023/04/07 09:04:05;;;;;;;12.30;7.60;;;;;;;8.36;100.00;101520.41;6242060;22;20004;-90
2023/04/07 09:06:31;;;;;;;5.60;5.05;;;;;;;8.30;100.00;101509.09;6238185;22;19996;-91
2023/04/07 09:08:57;;;;;;;9.18;5.60;;;;;;;8.34;100.00;101524.88;6241000;22;20012;-90
2023/04/07 09:11:23;;;;;;;7.13;4.65;;;;;;;8.16;100.00;101512.19;6241152;22;20004;-90
2023/04/07 09:13:50;;;;;;;6.88;4.32;;;;;;;8.12;100.00;101518.50;6241329;22;20019;-91
2023/04/07 09:16:15;;;;;;;8.65;4.93;;;;;;;8.05;100.00;101512.50;6239927;22;20034;-89
2023/04/07 09:18:41;;;;;;;8.60;4.72;;;;;;;8.05;100.00;101524.88;6239934;22;20008;-89
2023/04/07 09:21:07;;;;;;;7.63;4.75;;;;;;;8.06;100.00;101530.13;6240999;22;20061;-87
2023/04/07 09:23:39;;;;;;;9.90;4.25;;;;;;;8.09;100.00;101530.03;6242255;22;20020;-87
2023/04/07 09:26:27;;;;;;;6.85;4.63;;;;;;;8.21;100.00;101532.34;6239426;22;20098;-89
2023/04/07 09:28:54;;;;;;;7.85;4.60;;;;;;;8.38;100.00;101534.50;6239802;22;20070;-92
2023/04/07 09:31:21;;;;;;;5.65;4.18;;;;;;;8.52;100.00;101526.09;6239781;22;20008;-87
2023/04/07 09:33:48;;;;;;;7.10;4.03;;;;;;;8.59;100.00;101522.34;6240288;22;20008;-89
2023/04/07 09:36:13;;;;;;;10.05;4.05;;;;;;;8.85;100.00;101529.47;6237570;22;20046;-89
2023/04/07 09:38:40;;;;;;;6.70;3.80;;;;;;;9.19;100.00;101521.22;6238665;23;20012;-89
2023/04/07 09:41:14;;;;;;;7.75;3.70;;;;;;;9.57;100.00;101515.50;6241011;23;20008;-88
2023/04/07 09:43:43;;;;;;;7.57;3.40;;;;;;;9.76;100.00;101523.69;6264880;22;20008;-90
2023/04/07 09:46:13;;;;;;;6.90;3.45;;;;;;;9.79;100.00;101519.13;6266933;22;20043;-88
2023/04/07 09:48:39;;;;;;;8.40;3.65;;;;;;;9.61;100.00;101520.66;6266611;22;20019;-89
2023/04/07 09:51:10;;;;;;;6.03;3.72;;;;;;;9.60;100.00;101529.56;6266344;22;20004;-89
2023/04/07 09:53:52;;;;;;;7.05;3.70;;;;;;;9.52;100.00;101514.81;6262113;23;19996;-88
2023/04/07 09:56:21;;;;;;;7.45;3.80;;;;;;;9.42;100.00;101531.06;6259232;23;20266;-88
2023/04/07 09:58:50;;;;;;;7.82;3.63;;;;;;;9.43;100.00;101526.63;6261965;23;20004;-89
2023/04/07 10:01:16;;;;;;;6.88;3.63;;;;;;;9.42;100.00;101523.09;6243801;23;20000;-89
2023/04/07 10:03:43;;;;;;;6.97;3.67;;;;;;;9.44;100.00;101531.88;6243136;23;20367;-89
2023/04/07 10:06:09;;;;;;;5.85;3.10;;;;;;;9.53;100.00;101524.50;6242665;23;20000;-88
2023/04/07 10:08:36;;;;;;;8.40;3.53;;;;;;;9.75;100.00;101512.19;6242474;23;20011;-88
2023/04/07 10:11:03;;;;;;;6.40;3.17;;;;;;;9.98;100.00;101511.31;6242866;23;20081;-89
2023/04/07 10:13:33;;;;;;;6.07;3.17;;;;;;;10.25;99.54;101528.06;6239148;23;20027;-89
2023/04/07 10:16:02;;;;;;;7.75;3.60;;;;;;;10.32;97.32;101534.88;6239212;23;20079;-89
2023/04/07 10:18:30;;;;;;;7.45;3.28;;;;;;;10.41;98.69;101529.22;6241450;23;20068;-87
2023/04/07 10:20:59;;;;;;;6.20;3.10;;;;;;;10.32;98.28;101526.88;6239399;23;20011;-89
2023/04/07 10:23:31;;;;;;;4.97;3.33;;;;;;;10.28;98.16;101538.56;6238410;23;20007;-89
2023/04/07 10:25:58;;;;;;;7.63;3.75;;;;;;;10.14;97.25;101543.53;6238393;23;20000;-89
2023/04/07 10:28:26;;;;;;;6.03;3.33;;;;;;;9.79;99.25;101535.09;6239033;23;20246;-88
2023/04/07 10:30:52;;;;;;;9.63;3.45;;;;;;;9.67;99.68;101546.16;6237923;23;20387;-88
2023/04/07 10:33:47;;;;;;;7.50;3.53;;;;;;;9.55;100.00;101554.56;6237713;23;20043;-88
2023/04/07 10:36:13;;;;;;;8.73;3.90;;;;;;;9.31;100.00;101553.63;6237437;23;20440;-89
2023/04/07 10:38:38;;;;;;;12.27;3.85;;;;;;;9.18;100.00;101559.34;6237994;23;20008;-90
2023/04/07 10:41:31;;;;;;;8.45;4.13;;;;;;;9.11;100.00;101557.84;6212131;23;20014;-89
2023/04/07 10:43:57;;;;;;;8.05;4.22;;;;;;;8.99;100.00;101563.56;6239141;23;20734;-89
2023/04/07 10:46:22;;;;;;;11.30;4.80;;;;;;;9.08;100.00;101567.69;6238682;23;20050;-89
2023/04/07 10:49:12;;;;;;;11.65;4.35;;;;;;;9.19;100.00;101566.38;6238628;22;20024;-89
2023/04/07 10:51:38;;;;;;;9.02;4.45;;;;;;;9.28;100.00;101567.00;6241155;23;20010;-89
2023/04/07 10:54:19;;;;;;;10.57;4.80;;;;;;;9.35;100.00;101561.44;6246619;23;20008;-87
2023/04/07 10:57:02;;;;;;;7.95;4.90;;;;;;;9.52;100.00;101565.28;6245803;23;20032;-89
2023/04/07 10:59:32;;;;;;;11.07;4.55;;;;;;;9.87;100.00;101564.91;6249045;23;20000;-88
2023/04/07 11:02:13;;;;;;;7.82;4.28;;;;;;;10.58;100.00;101564.94;6247467;23;20557;-88
2023/04/07 11:04:41;;;;;;;9.02;3.92;;;;;;;11.08;94.92;101562.03;6213521;23;20008;-89
2023/04/07 11:07:07;;;;;;;8.75;4.07;;;;;;;11.68;93.20;101560.34;6237820;23;20000;-89
2023/04/07 11:09:32;;;;;;;6.93;3.30;;;;;;;11.96;89.62;101560.00;6238594;23;20000;-90
2023/04/07 11:11:57;;;;;;;6.60;4.28;;;;;;;12.28;90.69;101549.63;6237425;23;20018;-89
2023/04/07 11:14:31;;;;;;;8.85;3.55;;;;;;;12.80;86.36;101563.19;6237148;23;20008;-90